createdAt,value
2018-05-08T00:01:45.011Z,31.67
2018-05-08T00:04:18.130Z,31.67
2018-05-08T00:06:49.547Z,31.61
2018-05-08T00:09:21.472Z,31.50
2018-05-08T00:11:53.488Z,31.42
2018-05-08T00:14:26.446Z,31.38
2018-05-08T00:16:57.966Z,31.32
2018-05-08T00:19:29.579Z,31.26
2018-05-08T00:22:01.486Z,31.18
2018-05-08T00:26:45.320Z,31.05
2018-05-08T00:29:16.934Z,30.94
2018-05-08T00:31:48.807Z,30.92
2018-05-08T00:34:20.595Z,30.90
2018-05-08T00:36:52.118Z,30.91
2018-05-08T00:39:23.577Z,30.89
2018-05-08T00:41:55.784Z,30.86
2018-05-08T00:44:27.489Z,30.83
2018-05-08T00:47:00.342Z,30.76
2018-05-08T00:49:31.974Z,30.67
2018-05-08T00:52:03.489Z,30.60
2018-05-08T00:54:46.376Z,30.61
2018-05-08T00:57:19.383Z,30.57
2018-05-08T00:59:51.015Z,30.50
2018-05-08T01:02:23.478Z,30.42
2018-05-08T01:04:55.021Z,30.33
2018-05-08T01:07:27.630Z,30.29
2018-05-08T01:09:59.269Z,30.28
2018-05-08T01:12:32.169Z,30.24
2018-05-08T01:15:04.027Z,30.15
2018-05-08T01:17:35.900Z,30.10
2018-05-08T01:20:07.489Z,30.05
2018-05-08T01:22:39.115Z,30.01
2018-05-08T01:25:12.408Z,29.98
2018-05-08T01:27:44.233Z,29.92
2018-05-08T01:30:17.427Z,29.90
2018-05-08T01:32:49.399Z,29.82
2018-05-08T01:35:21.452Z,29.74
2018-05-08T01:37:54.804Z,29.70
2018-05-08T01:40:27.447Z,29.60
2018-05-08T01:45:09.470Z,29.49
2018-05-08T01:47:41.225Z,29.46
2018-05-08T01:50:12.892Z,29.42
2018-05-08T01:52:44.411Z,29.39
2018-05-08T01:55:16.107Z,29.35
2018-05-08T01:57:50.073Z,29.25
2018-05-08T02:00:21.958Z,29.16
2018-05-08T02:05:25.554Z,29.13
2018-05-08T02:07:56.336Z,29.05
2018-05-08T02:10:28.549Z,28.99
2018-05-08T02:13:00.446Z,28.94
2018-05-08T02:15:32.107Z,28.89
2018-05-08T02:18:04.044Z,28.81
2018-05-08T02:20:37.447Z,28.79
2018-05-08T02:23:09.897Z,28.71
2018-05-08T02:25:41.981Z,28.69
2018-05-08T02:28:15.722Z,28.57
2018-05-08T02:30:47.520Z,28.50
2018-05-08T02:33:20.465Z,28.42
2018-05-08T02:35:52.148Z,28.40
2018-05-08T02:38:23.968Z,28.38
2018-05-08T02:40:56.077Z,28.33
2018-05-08T02:43:28.092Z,28.22
2018-05-08T02:46:00.650Z,28.22
2018-05-08T02:48:33.910Z,28.19
2018-05-08T02:51:05.787Z,28.15
2018-05-08T02:53:38.340Z,28.09
2018-05-08T02:56:10.544Z,27.97
2018-05-08T02:58:44.449Z,27.91
2018-05-08T03:01:16.091Z,27.88
2018-05-08T03:03:48.071Z,27.80
2018-05-08T03:06:21.239Z,27.74
2018-05-08T03:08:53.540Z,27.70
2018-05-08T03:11:25.977Z,27.67
2018-05-08T03:13:57.804Z,27.64
2018-05-08T03:16:29.928Z,27.54
2018-05-08T03:19:02.051Z,27.46
2018-05-08T03:21:34.551Z,27.41
2018-05-08T03:24:06.966Z,27.39
2018-05-08T03:26:40.300Z,27.35
2018-05-08T03:29:12.255Z,27.34
2018-05-08T03:31:44.109Z,27.28
2018-05-08T03:34:16.070Z,27.23
2018-05-08T03:36:48.115Z,27.17
2018-05-08T03:39:21.147Z,27.11
2018-05-08T03:41:52.772Z,27.05
2018-05-08T03:44:24.887Z,27.01
2018-05-08T03:46:57.037Z,27.00
2018-05-08T03:49:28.545Z,26.99
2018-05-08T03:52:53.933Z,26.89
2018-05-08T03:55:27.444Z,26.88
2018-05-08T03:57:59.944Z,26.82
2018-05-08T04:00:43.569Z,26.74
2018-05-08T04:03:26.200Z,26.72
2018-05-08T04:06:03.941Z,26.63
2018-05-08T04:08:36.412Z,26.62
2018-05-08T04:11:08.249Z,26.57
2018-05-08T04:13:40.054Z,26.47
2018-05-08T04:18:12.939Z,26.49
2018-05-08T04:20:48.078Z,26.44
2018-05-08T04:23:19.624Z,26.41
2018-05-08T04:25:51.941Z,26.36
2018-05-08T04:28:24.423Z,26.36
2018-05-08T04:30:56.938Z,26.27
2018-05-08T04:33:29.494Z,26.25
2018-05-08T04:36:01.336Z,26.22
2018-05-08T04:38:38.521Z,26.19
2018-05-08T04:41:11.225Z,26.12
2018-05-08T04:43:44.331Z,26.09
2018-05-08T04:46:15.978Z,26.05
2018-05-08T04:48:48.544Z,26.01
2018-05-08T04:51:20.553Z,26.01
2018-05-08T04:53:51.999Z,26.07
2018-05-08T04:56:25.429Z,26.05
2018-05-08T04:58:57.980Z,26.01
2018-05-08T05:01:31.558Z,25.98
2018-05-08T05:04:07.012Z,25.93
2018-05-08T05:06:38.556Z,25.90
2018-05-08T05:09:10.021Z,25.83
2018-05-08T05:11:41.557Z,25.76
2018-05-08T05:14:14.387Z,25.77
2018-05-08T05:16:46.010Z,25.70
2018-05-08T05:19:18.419Z,25.66
2018-05-08T05:21:51.105Z,25.64
2018-05-08T05:24:23.173Z,25.65
2018-05-08T05:26:55.133Z,25.63
2018-05-08T05:32:14.437Z,25.62
2018-05-08T05:34:46.348Z,25.66
2018-05-08T05:37:18.965Z,25.64
2018-05-08T05:39:50.926Z,25.58
2018-05-08T05:42:22.675Z,25.48
2018-05-08T05:44:54.409Z,25.45
2018-05-08T05:47:26.566Z,25.42
2018-05-08T05:49:58.105Z,25.38
2018-05-08T05:52:30.015Z,25.37
2018-05-08T05:55:01.603Z,25.37
2018-05-08T05:57:35.467Z,25.41
2018-05-08T06:00:07.447Z,25.36
2018-05-08T06:02:39.142Z,25.29
2018-05-08T06:05:12.460Z,25.20
2018-05-08T06:07:44.357Z,25.15
2018-05-08T06:10:16.096Z,25.15
2018-05-08T06:12:47.876Z,25.15
2018-05-08T06:15:21.494Z,25.15
2018-05-08T06:17:53.291Z,25.14
2018-05-08T06:20:24.962Z,25.11
2018-05-08T06:22:58.109Z,25.06
2018-05-08T06:25:30.879Z,24.98
2018-05-08T06:28:03.488Z,24.90
2018-05-08T06:30:36.011Z,24.86
2018-05-08T06:33:09.160Z,24.79
2018-05-08T06:35:42.487Z,24.77
2018-05-08T06:38:15.491Z,24.79
2018-05-08T06:40:49.322Z,24.76
2018-05-08T06:43:22.713Z,24.66
2018-05-08T06:45:57.002Z,24.60
2018-05-08T06:48:30.503Z,24.56
2018-05-08T06:51:03.474Z,24.55
2018-05-08T06:53:37.489Z,24.55
2018-05-08T06:56:10.303Z,24.53
2018-05-08T06:58:44.103Z,24.48
2018-05-08T07:01:17.373Z,24.49
2018-05-08T07:03:50.625Z,24.51
2018-05-08T07:06:24.468Z,24.56
2018-05-08T07:08:57.678Z,24.63
2018-05-08T07:11:30.485Z,24.67
2018-05-08T07:14:05.457Z,24.66
2018-05-08T07:16:38.426Z,24.61
2018-05-08T07:19:11.757Z,24.64
2018-05-08T07:21:48.708Z,24.54
2018-05-08T07:24:21.866Z,24.42
2018-05-08T07:26:55.018Z,24.41
2018-05-08T07:29:27.496Z,24.45
2018-05-08T07:32:00.835Z,24.38
2018-05-08T07:34:33.481Z,24.30
2018-05-08T07:37:07.039Z,24.24
2018-05-08T07:39:40.856Z,24.23
2018-05-08T07:42:14.112Z,24.22
2018-05-08T07:44:47.459Z,24.24
2018-05-08T07:47:22.343Z,24.22
2018-05-08T07:49:55.642Z,24.26
2018-05-08T07:52:29.454Z,24.27
2018-05-08T07:55:02.345Z,24.31
2018-05-08T07:57:35.657Z,24.32
2018-05-08T08:00:08.526Z,24.37
2018-05-08T08:02:42.514Z,24.39
2018-05-08T08:05:16.057Z,24.41
2018-05-08T08:07:48.577Z,24.40
2018-05-08T08:10:22.830Z,24.36
2018-05-08T08:12:55.548Z,24.32
2018-05-08T08:15:29.476Z,24.30
2018-05-08T08:18:03.469Z,24.32
2018-05-08T08:20:36.431Z,24.34
2018-05-08T08:23:09.434Z,24.35
2018-05-08T08:25:43.287Z,24.34
2018-05-08T08:28:16.315Z,24.36
2018-05-08T08:30:49.596Z,24.38
2018-05-08T08:33:21.451Z,24.40
2018-05-08T08:35:54.417Z,24.37
2018-05-08T08:38:27.594Z,24.37
2018-05-08T08:41:00.504Z,24.40
2018-05-08T08:43:33.158Z,24.38
2018-05-08T08:46:06.959Z,24.32
2018-05-08T08:48:40.535Z,24.26
2018-05-08T08:51:16.040Z,24.23
2018-05-08T08:53:49.412Z,24.11
2018-05-08T08:56:23.607Z,23.95
2018-05-08T08:58:56.561Z,23.84
2018-05-08T09:01:29.516Z,23.80
2018-05-08T09:04:02.594Z,23.87
2018-05-08T09:06:35.730Z,23.92
2018-05-08T09:09:09.482Z,23.95
2018-05-08T09:11:42.675Z,23.89
2018-05-08T09:14:15.910Z,23.87
2018-05-08T09:16:48.970Z,23.83
2018-05-08T09:19:23.337Z,23.81
2018-05-08T09:21:56.141Z,23.77
2018-05-08T09:24:29.711Z,23.75
2018-05-08T09:27:03.727Z,23.70
2018-05-08T09:29:36.782Z,23.69
2018-05-08T09:32:10.334Z,23.72
2018-05-08T09:34:43.729Z,23.76
2018-05-08T09:37:16.303Z,23.76
2018-05-08T09:39:49.445Z,23.66
2018-05-08T09:42:22.676Z,23.65
2018-05-08T09:44:55.505Z,23.67
2018-05-08T09:47:28.566Z,23.67
2018-05-08T09:50:01.656Z,23.67
2018-05-08T09:52:35.475Z,23.67
2018-05-08T09:55:09.107Z,23.64
2018-05-08T09:57:41.830Z,23.61
2018-05-08T10:00:14.562Z,23.54
2018-05-08T10:02:47.245Z,23.52
2018-05-08T10:05:20.651Z,23.51
2018-05-08T10:07:53.579Z,23.52
2018-05-08T10:10:26.443Z,23.51
2018-05-08T10:12:59.771Z,23.49
2018-05-08T10:15:33.456Z,23.50
2018-05-08T10:18:06.259Z,23.50
2018-05-08T10:20:39.759Z,23.46
2018-05-08T10:23:13.234Z,23.44
2018-05-08T10:25:46.688Z,23.43
2018-05-08T10:28:19.446Z,23.42
2018-05-08T10:30:52.347Z,23.37
2018-05-08T10:33:24.981Z,23.35
2018-05-08T10:35:57.487Z,23.33
2018-05-08T10:38:30.930Z,23.22
2018-05-08T10:41:04.025Z,23.18
2018-05-08T10:43:37.449Z,23.17
2018-05-08T10:46:10.350Z,23.18
2018-05-08T10:48:42.619Z,23.16
2018-05-08T10:51:15.457Z,23.16
2018-05-08T10:53:48.568Z,23.18
2018-05-08T10:56:21.897Z,23.18
2018-05-08T10:58:55.254Z,23.17
2018-05-08T11:01:28.111Z,23.19
2018-05-08T11:04:00.964Z,23.18
2018-05-08T11:06:33.984Z,23.18
2018-05-08T11:09:07.437Z,23.18
2018-05-08T11:13:58.000Z,23.12
2018-05-08T11:16:30.704Z,23.00
2018-05-08T11:19:03.165Z,22.87
2018-05-08T11:21:35.987Z,22.85
2018-05-08T11:24:09.070Z,22.90
2018-05-08T11:26:42.595Z,22.88
2018-05-08T11:29:15.501Z,22.86
2018-05-08T11:31:49.071Z,22.88
2018-05-08T11:34:21.849Z,22.89
2018-05-08T11:36:55.338Z,22.88
2018-05-08T11:39:27.727Z,22.87
2018-05-08T11:42:00.413Z,22.88
2018-05-08T11:44:33.729Z,22.83
2018-05-08T11:47:07.588Z,22.76
2018-05-08T11:49:39.286Z,22.75
2018-05-08T11:52:12.443Z,22.77
2018-05-08T11:54:44.973Z,22.74
2018-05-08T11:57:18.599Z,22.75
2018-05-08T11:59:51.204Z,22.75
2018-05-08T12:02:24.428Z,22.69
2018-05-08T12:04:57.715Z,22.69
2018-05-08T12:07:31.108Z,22.60
2018-05-08T12:10:04.632Z,22.48
2018-05-08T12:12:37.688Z,22.43
2018-05-08T12:15:09.452Z,22.38
2018-05-08T12:17:42.420Z,22.41
2018-05-08T12:20:15.488Z,22.45
2018-05-08T12:22:48.548Z,22.32
2018-05-08T12:25:21.778Z,22.33
2018-05-08T12:27:55.469Z,22.37
2018-05-08T12:30:27.996Z,22.45
2018-05-08T12:34:05.540Z,22.40
2018-05-08T12:36:38.967Z,22.40
2018-05-08T12:39:12.002Z,22.41
2018-05-08T12:41:45.062Z,22.38
2018-05-08T12:44:18.414Z,22.35
2018-05-08T12:46:51.949Z,22.28
2018-05-08T12:49:24.955Z,22.16
2018-05-08T12:51:57.451Z,22.09
2018-05-08T12:54:31.490Z,22.17
2018-05-08T12:57:05.228Z,22.18
2018-05-08T12:59:37.969Z,22.18
2018-05-08T13:02:11.605Z,22.14
2018-05-08T13:04:45.011Z,22.06
2018-05-08T13:07:17.782Z,22.00
2018-05-08T13:09:51.043Z,22.05
2018-05-08T13:12:23.718Z,22.11
2018-05-08T13:14:56.417Z,22.08
2018-05-08T13:17:29.328Z,22.08
2018-05-08T13:20:02.551Z,22.10
2018-05-08T13:22:36.236Z,21.94
2018-05-08T13:25:09.457Z,21.87
2018-05-08T13:27:42.854Z,21.82
2018-05-08T13:30:15.585Z,21.74
2018-05-08T13:32:48.699Z,21.85
2018-05-08T13:35:21.965Z,21.88
2018-05-08T13:37:55.317Z,21.93
2018-05-08T13:40:28.328Z,21.94
2018-05-08T13:43:00.963Z,21.92
2018-05-08T13:45:34.335Z,21.88
2018-05-08T13:48:07.200Z,21.80
2018-05-08T13:50:40.698Z,21.82
2018-05-08T13:53:14.511Z,21.83
2018-05-08T13:55:47.231Z,21.87
2018-05-08T13:58:19.577Z,21.92
2018-05-08T14:00:52.552Z,21.91
2018-05-08T14:03:25.443Z,21.94
2018-05-08T14:05:58.201Z,22.00
2018-05-08T14:08:30.966Z,22.00
2018-05-08T14:11:03.967Z,21.97
2018-05-08T14:13:37.229Z,21.96
2018-05-08T14:16:10.347Z,21.83
2018-05-08T14:18:43.429Z,21.76
2018-05-08T14:21:16.402Z,21.82
2018-05-08T14:23:49.542Z,21.81
2018-05-08T14:26:22.620Z,21.82
2018-05-08T14:28:55.597Z,21.80
2018-05-08T14:31:27.535Z,21.84
2018-05-08T14:34:00.459Z,21.95
2018-05-08T14:36:33.031Z,22.04
2018-05-08T14:39:06.083Z,22.08
2018-05-08T14:41:38.969Z,22.06
2018-05-08T14:44:12.570Z,22.06
2018-05-08T14:46:46.107Z,22.00
2018-05-08T14:49:19.435Z,21.96
2018-05-08T14:51:52.958Z,21.92
2018-05-08T14:54:25.736Z,21.93
2018-05-08T14:56:58.662Z,21.94
2018-05-08T14:59:31.428Z,22.01
2018-05-08T15:02:05.567Z,22.05
2018-05-08T15:04:39.058Z,22.04
2018-05-08T15:07:12.425Z,22.07
2018-05-08T15:09:46.559Z,22.06
2018-05-08T15:12:19.916Z,22.09
2018-05-08T15:14:53.349Z,22.10
2018-05-08T15:17:26.424Z,22.12
2018-05-08T15:19:59.089Z,22.11
2018-05-08T15:22:32.135Z,22.14
2018-05-08T15:25:05.091Z,22.12
2018-05-08T15:27:38.138Z,22.11
2018-05-08T15:30:11.268Z,22.10
2018-05-08T15:32:44.496Z,22.09
2018-05-08T15:35:18.346Z,22.09
2018-05-08T15:37:51.516Z,22.16
2018-05-08T15:40:24.673Z,22.20
2018-05-08T15:42:58.300Z,22.20
2018-05-08T15:45:30.819Z,22.24
2018-05-08T15:48:04.353Z,22.32
2018-05-08T15:50:37.072Z,22.33
2018-05-08T15:53:09.930Z,22.33
2018-05-08T15:55:43.321Z,22.36
2018-05-08T15:58:16.644Z,22.42
2018-05-08T16:00:49.434Z,22.47
2018-05-08T16:03:22.331Z,22.46
2018-05-08T16:05:54.973Z,22.44
2018-05-08T16:08:27.132Z,22.46
2018-05-08T16:10:59.868Z,22.51
2018-05-08T16:13:33.510Z,22.56
2018-05-08T16:16:07.537Z,22.54
2018-05-08T16:18:41.101Z,22.54
2018-05-08T16:21:14.459Z,22.56
2018-05-08T16:23:47.442Z,22.60
2018-05-08T16:26:20.455Z,22.62
2018-05-08T16:28:53.119Z,22.63
2018-05-08T16:31:26.641Z,22.65
2018-05-08T16:33:59.591Z,22.70
2018-05-08T16:36:32.603Z,22.73
2018-05-08T16:39:05.951Z,22.76
2018-05-08T16:41:39.461Z,22.80
2018-05-08T16:44:13.283Z,22.82
2018-05-08T16:46:45.996Z,22.82
2018-05-08T16:49:18.753Z,22.88
2018-05-08T16:51:51.611Z,22.92
2018-05-08T16:54:25.425Z,22.95
2018-05-08T16:56:57.496Z,22.99
2018-05-08T16:59:31.255Z,22.99
2018-05-08T17:02:03.959Z,23.04
2018-05-08T17:04:36.403Z,23.08
2018-05-08T17:07:08.774Z,23.14
2018-05-08T17:09:42.530Z,23.18
2018-05-08T17:12:15.748Z,23.22
2018-05-08T17:17:25.425Z,23.28
2018-05-08T17:19:58.691Z,23.31
2018-05-08T17:22:31.504Z,23.36
2018-05-08T17:25:04.552Z,23.41
2018-05-08T17:27:36.941Z,23.44
2018-05-08T17:30:09.824Z,23.49
2018-05-08T17:32:43.406Z,23.54
2018-05-08T17:35:16.049Z,23.57
2018-05-08T17:37:49.100Z,23.58
2018-05-08T17:40:22.326Z,23.63
2018-05-08T17:42:55.614Z,23.66
2018-05-08T17:45:28.569Z,23.69
2018-05-08T17:48:01.420Z,23.66
2018-05-08T17:50:34.534Z,23.68
2018-05-08T17:53:07.553Z,23.74
2018-05-08T17:55:40.553Z,23.82
2018-05-08T17:58:13.405Z,23.87
2018-05-08T18:02:34.655Z,23.88
2018-05-08T18:05:08.428Z,23.94
2018-05-08T18:07:41.512Z,23.95
2018-05-08T18:10:14.060Z,24.05
2018-05-08T18:12:47.050Z,24.15
2018-05-08T18:15:19.803Z,24.16
2018-05-08T18:17:53.249Z,24.17
2018-05-08T18:20:25.776Z,24.18
2018-05-08T18:22:58.772Z,24.26
2018-05-08T18:25:31.546Z,24.35
2018-05-08T18:28:05.402Z,24.43
2018-05-08T18:30:38.413Z,24.53
2018-05-08T18:33:11.419Z,24.63
2018-05-08T18:35:44.215Z,24.70
2018-05-08T18:38:17.829Z,24.74
2018-05-08T18:40:50.962Z,24.80
2018-05-08T18:43:24.403Z,24.87
2018-05-08T18:45:56.875Z,24.95
2018-05-08T18:48:29.810Z,25.04
2018-05-08T18:51:03.054Z,25.10
2018-05-08T18:53:35.450Z,25.13
2018-05-08T18:56:08.039Z,25.19
2018-05-08T18:58:41.610Z,25.23
2018-05-08T19:01:14.563Z,25.29
2018-05-08T19:03:48.613Z,25.36
2018-05-08T19:09:17.469Z,25.46
2018-05-08T19:11:51.417Z,25.59
2018-05-08T19:14:24.900Z,25.69
2018-05-08T19:16:57.964Z,25.80
2018-05-08T19:19:35.537Z,25.85
2018-05-08T19:22:09.107Z,25.90
2018-05-08T19:24:42.324Z,25.99
2018-05-08T19:27:15.185Z,26.02
2018-05-08T19:29:52.678Z,26.11
2018-05-08T19:32:26.329Z,26.10
2018-05-08T19:35:03.972Z,26.20
2018-05-08T19:40:56.503Z,26.36
2018-05-08T19:43:29.659Z,26.47
2018-05-08T19:46:02.442Z,26.56
2018-05-08T19:48:35.446Z,26.63
2018-05-08T19:51:08.441Z,26.70
2018-05-08T19:53:41.421Z,26.80
2018-05-08T19:56:14.720Z,26.88
2018-05-08T19:58:47.539Z,26.96
2018-05-08T20:01:20.431Z,27.02
2018-05-08T20:03:53.295Z,27.10
2018-05-08T20:06:26.404Z,27.17
2018-05-08T20:08:59.542Z,27.26
2018-05-08T20:11:32.640Z,27.34
2018-05-08T20:14:04.482Z,27.41
2018-05-08T20:16:37.104Z,27.44
2018-05-08T20:19:10.480Z,27.45
2018-05-08T20:21:43.636Z,27.57
2018-05-08T20:24:16.619Z,27.69
2018-05-08T20:26:49.073Z,27.71
2018-05-08T20:29:22.445Z,27.76
2018-05-08T20:31:55.426Z,27.87
2018-05-08T20:34:28.145Z,27.96
2018-05-08T20:37:01.417Z,28.06
2018-05-08T20:39:34.186Z,28.05
2018-05-08T20:42:07.032Z,28.09
2018-05-08T20:44:40.583Z,28.12
2018-05-08T20:47:13.112Z,28.19
2018-05-08T20:49:46.163Z,28.28
2018-05-08T20:52:19.543Z,28.33
2018-05-08T20:54:52.942Z,28.33
2018-05-08T20:57:24.614Z,28.40
2018-05-08T20:59:57.415Z,28.53
2018-05-08T21:02:30.622Z,28.64
2018-05-08T21:05:03.488Z,28.71
2018-05-08T21:07:36.241Z,28.80
2018-05-08T21:10:08.762Z,28.87
2018-05-08T21:12:40.690Z,28.95
2018-05-08T21:15:14.342Z,28.99
2018-05-08T21:17:48.279Z,29.09
2018-05-08T21:20:21.718Z,29.19
2018-05-08T21:22:54.729Z,29.28
2018-05-08T21:25:27.927Z,29.36
2018-05-08T21:28:05.573Z,29.40
2018-05-08T21:30:43.991Z,29.46
2018-05-08T21:33:17.709Z,29.59
2018-05-08T21:35:50.705Z,29.64
2018-05-08T21:38:24.121Z,29.66
2018-05-08T21:40:57.544Z,29.74
2018-05-08T21:43:30.547Z,29.83
2018-05-08T21:46:03.432Z,29.94
2018-05-08T21:48:36.089Z,30.04
2018-05-08T21:51:08.503Z,30.13
2018-05-08T21:53:42.507Z,30.22
2018-05-08T21:56:15.502Z,30.28
2018-05-08T21:58:48.273Z,30.27
2018-05-08T22:01:20.908Z,30.31
2018-05-08T22:03:52.768Z,30.41
2018-05-08T22:06:26.292Z,30.51
2018-05-08T22:08:58.911Z,30.58
2018-05-08T22:11:31.583Z,30.62
2018-05-08T22:14:05.366Z,30.72
2018-05-08T22:16:37.968Z,30.81
2018-05-08T22:19:10.654Z,30.88
2018-05-08T22:21:42.450Z,30.97
2018-05-08T22:26:28.480Z,31.07
2018-05-08T22:29:00.309Z,31.13
2018-05-08T22:31:31.906Z,31.21
2018-05-08T22:34:04.500Z,31.28
2018-05-08T22:36:37.603Z,31.32
2018-05-08T22:39:09.369Z,31.38
2018-05-08T22:41:41.014Z,31.44
2018-05-08T22:44:13.083Z,31.54
2018-05-08T22:46:45.096Z,31.53
2018-05-08T22:49:46.155Z,31.46
2018-05-08T22:52:18.708Z,31.51
2018-05-08T22:54:50.462Z,31.60
2018-05-08T22:57:21.980Z,31.67
2018-05-08T22:59:53.588Z,31.67
2018-05-08T23:05:01.594Z,31.67
2018-05-08T23:07:33.012Z,31.72
2018-05-08T23:10:05.003Z,31.75
2018-05-08T23:12:36.604Z,31.79
2018-05-08T23:15:08.343Z,31.83
2018-05-08T23:17:40.140Z,31.83
2018-05-08T23:20:13.475Z,31.86
2018-05-08T23:22:45.219Z,31.94
2018-05-08T23:26:09.995Z,31.99
2018-05-08T23:28:42.068Z,32.06
2018-05-08T23:31:15.519Z,32.09
2018-05-08T23:33:48.668Z,32.08
2018-05-08T23:36:20.299Z,32.01
2018-05-08T23:38:52.009Z,32.01
2018-05-08T23:41:23.607Z,31.94
2018-05-08T23:43:55.403Z,31.92
2018-05-08T23:46:27.150Z,31.82
2018-05-08T23:51:14.627Z,31.60
2018-05-08T23:53:46.173Z,31.53
2018-05-08T23:56:18.141Z,31.49
2018-05-08T23:59:24.891Z,31.37
